Colonia del Sacramento, Uruguay

5:17 PM UYT en Agosto 30, 2014 (GMT -0300)
Puerto de Colonia (ROU) | Change Station
CLOSE
Current Station
Estación meteorológica personal
Location: Colonia Del Sacramento, DEPARTAMENTO DE COLONIA
Altura: 0 ft
Estaciones meteorológicas cercanas

Alt 0 ft 34.46 °S, 57.83 °W | Updated 8 seconds ago

Clear
Despejado
60.4 ° F
Sensación térmica 60.4 ° F
N
1.3
Viento Variable Viento desde NE
Gusts 2.5 mph

Hoy
Alta -- | Baja -- ° F
--% Posibilidad de precipitaciones
Ayer
Alta -- | Baja -- ° F
Precip. -- pul
7:12 AM 6:31 PM
Creciente, 24% visible
Presión 29.86 pul
Visibilidad 5.0 Millas
Nubes
Punto de rocío 56 ° F
Humedad 86%
Precipitaciones 0.00 pul
Espesor de la nieve No disponible.
UV 1.0 de una escala de 12
Polen No disponible.
Calidad del aire No disponible.
Flu Activity No disponible.
METAR SABE 302000Z 11009KT 8000 NSC 18/13 Q1011

More Conditions Fewer Conditions

Presión 29.86 pul
Visibilidad 5.0 Millas
Nubes
Punto de rocío 56 ° F
Humedad 86%
Precipitaciones 0.00 pul
Espesor de la nieve No disponible.
UV 1.0 de una escala de 12
Polen No disponible.
Calidad del aire No disponible.
Flu Activity No disponible.
METAR SABE 302000Z 11009KT 8000 NSC 18/13 Q1011

More Conditions Fewer Conditions

10-Day Weather Forecast

Almanac

Astronomía

Aug. 30, 2014 Salida Puesta
Hora real 7:12 AM UYT 6:31 PM UYT
Crepúsculo civil 6:47 AM UYT 6:56 PM UYT
Crepúsculo náutico 6:18 AM UYT 7:26 PM UYT
Crepúsculo astronómico 5:49 AM UYT 7:55 PM UYT
Luna 9:47 AM UYT 11:19 PM UYT
Horas de luz 12h 09m
Horas de luz
11h 18m
Tomorrow will be 2m 1s longer.
Creciente, 24% of the Moon is Illuminated
Hoy
Creciente
Sep 2
Cuarto creciente
Sep 8
Luna llena
Sep 15
Cuarto menguante
Sep 24
Nueva

Extremos de hoy

Máximos del país Bajas del país

Community

WunderPhotos

Upload Photos

1,748,622 ¡fotos cargadas!

WunderBlogs® & News

Nearby

Calidad del aire

Not available.

Grosos de nieve

Not available.

Actividad de terremotos

Ciudad Distance Mag. Tiempo y dato
No hay informes recientes de la actividad sísmica.
Magnitud mínima muestra es 2,5.

Temperaturas de aguas costeras

Lugar Temperatura
Sin partes meteorológicos de las estaciones

Estaciones meteorológicas cercanas